Terminal Aerodrome Forecast
Issued by NWS St Louis, MO

Home | Current Version | Previous Version | Text Only | Print | Product List | Glossary On
Versions: 1 2 3 4 5 6 7 8 9 10 11 12 13 14 15 16
349
FTUS43 KLSX 291129
TAFCOU
TAF
KCOU 291129Z 2912/3012 32008KT P6SM FEW250
     FM291600 35010G16KT P6SM FEW250
     FM300100 34006KT P6SM SCT110=

USA.gov is the U.S. government's official web portal to all federal, state and local government web resources and services.